createdAt,value
2018-04-24T00:01:22.408Z,95.70
2018-04-24T00:03:25.108Z,95.50
2018-04-24T00:05:27.719Z,95.60
2018-04-24T00:07:30.328Z,95.70
2018-04-24T00:09:32.934Z,95.60
2018-04-24T00:11:35.551Z,95.80
2018-04-24T00:13:38.911Z,96.00
2018-04-24T00:15:41.506Z,96.00
2018-04-24T00:17:44.159Z,96.00
2018-04-24T00:19:47.385Z,96.00
2018-04-24T00:21:50.268Z,96.10
2018-04-24T00:23:53.009Z,96.20
2018-04-24T00:25:55.629Z,96.10
2018-04-24T00:27:58.383Z,96.20
2018-04-24T00:30:01.336Z,96.20
2018-04-24T00:32:04.006Z,96.20
2018-04-24T00:34:07.608Z,96.00
2018-04-24T00:36:10.652Z,96.00
2018-04-24T00:38:13.305Z,95.90
2018-04-24T00:40:16.008Z,95.70
2018-04-24T00:42:18.929Z,95.70
2018-04-24T00:44:21.567Z,95.70
2018-04-24T00:46:24.177Z,95.80
2018-04-24T00:48:27.151Z,96.00
2018-04-24T00:50:30.809Z,96.00
2018-04-24T00:52:33.599Z,96.00
2018-04-24T00:54:36.280Z,95.90
2018-04-24T00:56:39.976Z,95.50
2018-04-24T00:58:42.552Z,95.70
2018-04-24T01:00:45.857Z,95.50
2018-04-24T01:02:49.233Z,95.70
2018-04-24T01:04:51.904Z,95.70
2018-04-24T01:06:54.532Z,95.60
2018-04-24T01:08:57.135Z,95.60
2018-04-24T01:10:59.992Z,95.30
2018-04-24T01:13:02.604Z,95.50
2018-04-24T01:15:05.190Z,95.70
2018-04-24T01:17:07.812Z,95.90
2018-04-24T01:19:10.398Z,96.10
2018-04-24T01:21:13.039Z,96.00
2018-04-24T01:23:15.656Z,95.80
2018-04-24T01:25:18.329Z,95.80
2018-04-24T01:27:20.976Z,95.70
2018-04-24T01:29:23.647Z,95.70
2018-04-24T01:31:26.269Z,95.70
2018-04-24T01:33:29.702Z,96.00
2018-04-24T01:35:33.067Z,96.00
2018-04-24T01:37:36.459Z,96.10
2018-04-24T01:39:39.049Z,96.00
2018-04-24T01:41:41.646Z,96.20
2018-04-24T01:43:44.243Z,96.20
2018-04-24T01:45:46.835Z,96.20
2018-04-24T01:47:49.441Z,96.10
2018-04-24T01:49:52.035Z,96.20
2018-04-24T01:51:55.414Z,95.90
2018-04-24T01:53:58.840Z,95.80
2018-04-24T01:56:01.506Z,95.70
2018-04-24T01:58:04.105Z,95.50
2018-04-24T02:00:06.704Z,95.80
2018-04-24T02:02:09.326Z,95.90
2018-04-24T02:04:12.683Z,96.20
2018-04-24T02:06:15.316Z,96.10
2018-04-24T02:08:17.961Z,96.10
2018-04-24T02:10:21.340Z,96.00
2018-04-24T02:12:24.091Z,96.00
2018-04-24T02:14:27.297Z,96.10
2018-04-24T02:16:29.876Z,96.00
2018-04-24T02:18:32.482Z,96.00
2018-04-24T02:20:35.084Z,96.00
2018-04-24T02:22:37.723Z,96.10
2018-04-24T02:24:41.071Z,96.10
2018-04-24T02:26:43.656Z,96.10
2018-04-24T02:28:47.016Z,96.10
2018-04-24T02:30:49.604Z,96.20
2018-04-24T02:32:52.216Z,96.30
2018-04-24T02:34:55.576Z,96.00
2018-04-24T02:36:58.168Z,96.00
2018-04-24T02:39:00.810Z,95.80
2018-04-24T02:41:03.483Z,95.70
2018-04-24T02:43:06.921Z,95.80
2018-04-24T02:45:10.283Z,95.80
2018-04-24T02:47:12.878Z,95.70
2018-04-24T02:49:15.495Z,95.60
2018-04-24T02:51:18.072Z,95.60
2018-04-24T02:53:20.685Z,95.70
2018-04-24T02:55:23.263Z,95.80
2018-04-24T02:57:25.857Z,96.10
2018-04-24T02:59:29.849Z,95.70
2018-04-24T03:01:33.691Z,95.70
2018-04-24T03:03:36.288Z,95.50
2018-04-24T03:05:38.875Z,95.30
2018-04-24T03:07:41.469Z,95.30
2018-04-24T03:09:44.079Z,95.90
2018-04-24T03:11:47.500Z,96.00
2018-04-24T03:13:50.084Z,96.00
2018-04-24T03:15:52.685Z,95.90
2018-04-24T03:17:55.296Z,95.70
2018-04-24T03:19:58.669Z,95.90
2018-04-24T03:22:01.253Z,95.80
2018-04-24T03:24:04.680Z,96.00
2018-04-24T03:26:07.272Z,96.00
2018-04-24T03:28:09.874Z,96.00
2018-04-24T03:30:12.540Z,96.30
2018-04-24T03:32:15.123Z,96.30
2018-04-24T03:34:17.732Z,96.30
2018-04-24T03:36:21.082Z,96.40
2018-04-24T03:38:23.672Z,96.40
2018-04-24T03:40:26.409Z,96.40
2018-04-24T03:42:29.072Z,96.40
2018-04-24T03:44:31.691Z,96.30
2018-04-24T03:46:34.317Z,96.40
2018-04-24T03:48:36.943Z,96.30
2018-04-24T03:50:39.608Z,96.40
2018-04-24T03:52:42.955Z,96.00
2018-04-24T03:54:45.573Z,95.90
2018-04-24T03:56:48.179Z,95.80
2018-04-24T03:58:51.587Z,95.80
2018-04-24T04:00:54.168Z,95.80
2018-04-24T04:02:56.747Z,95.80
2018-04-24T04:04:59.397Z,96.10
2018-04-24T04:07:02.751Z,96.10
2018-04-24T04:09:06.327Z,96.10
2018-04-24T04:11:08.930Z,96.20
2018-04-24T04:13:11.517Z,96.20
2018-04-24T04:15:14.117Z,96.10
2018-04-24T04:17:29.399Z,96.00
2018-04-24T04:19:43.709Z,96.00
2018-04-24T04:21:58.328Z,96.10
2018-04-24T04:24:12.676Z,96.30
2018-04-24T04:26:15.288Z,96.50
2018-04-24T04:28:17.872Z,96.80
2018-04-24T04:30:21.293Z,96.70
2018-04-24T04:32:23.888Z,96.50
2018-04-24T04:34:26.528Z,96.60
2018-04-24T04:36:29.882Z,96.10
2018-04-24T04:38:32.477Z,96.20
2018-04-24T04:40:35.144Z,96.20
2018-04-24T04:42:38.741Z,96.30
2018-04-24T04:44:41.370Z,96.00
2018-04-24T04:46:43.972Z,96.10
2018-04-24T04:48:46.556Z,96.10
2018-04-24T04:50:49.235Z,96.00
2018-04-24T04:52:52.615Z,96.10
2018-04-24T04:54:55.228Z,96.10
2018-04-24T04:56:58.588Z,96.60
2018-04-24T04:59:01.197Z,96.60
2018-04-24T05:01:04.592Z,96.60
2018-04-24T05:03:07.961Z,96.60
2018-04-24T05:05:10.592Z,96.60
2018-04-24T05:07:13.191Z,96.50
2018-04-24T05:09:16.548Z,96.40
2018-04-24T05:11:19.156Z,96.50
2018-04-24T05:13:21.804Z,96.40
2018-04-24T05:15:24.435Z,96.40
2018-04-24T05:17:27.901Z,96.60
2018-04-24T05:19:30.496Z,96.50
2018-04-24T05:21:33.134Z,96.50
2018-04-24T05:23:35.745Z,96.60
2018-04-24T05:25:38.373Z,96.60
2018-04-24T05:27:41.889Z,96.50
2018-04-24T05:29:45.255Z,96.50
2018-04-24T05:31:47.904Z,96.50
2018-04-24T05:33:51.268Z,96.90
2018-04-24T05:35:53.891Z,96.80
2018-04-24T05:37:56.497Z,96.90
2018-04-24T05:39:59.108Z,97.00
2018-04-24T05:42:01.719Z,97.00
2018-04-24T05:44:04.309Z,97.20
2018-04-24T05:46:06.924Z,97.00
2018-04-24T05:48:09.529Z,97.00
2018-04-24T05:50:12.168Z,97.00
2018-04-24T05:52:14.780Z,96.90
2018-04-24T05:54:17.451Z,96.90
2018-04-24T05:56:20.863Z,97.00
2018-04-24T05:58:23.544Z,96.90
2018-04-24T06:00:26.155Z,96.80
2018-04-24T06:02:28.742Z,97.00
2018-04-24T06:04:31.331Z,97.10
2018-04-24T06:06:34.704Z,96.70
2018-04-24T06:08:37.326Z,96.70
2018-04-24T06:10:39.924Z,97.10
2018-04-24T06:12:42.632Z,96.90
2018-04-24T06:14:45.260Z,96.80
2018-04-24T06:16:48.261Z,96.80
2018-04-24T06:18:50.991Z,96.90
2018-04-24T06:20:53.664Z,96.90
2018-04-24T06:22:57.040Z,97.10
2018-04-24T06:24:59.632Z,97.00
2018-04-24T06:27:02.234Z,96.90
2018-04-24T06:29:04.818Z,96.60
2018-04-24T06:31:07.417Z,96.60
2018-04-24T06:33:10.031Z,96.70
2018-04-24T06:35:12.690Z,96.80
2018-04-24T06:37:15.352Z,96.90
2018-04-24T06:39:17.935Z,96.90
2018-04-24T06:41:20.547Z,96.50
2018-04-24T06:43:23.141Z,96.30
2018-04-24T06:45:25.752Z,96.30
2018-04-24T06:47:28.374Z,95.90
2018-04-24T06:49:30.980Z,95.80
2018-04-24T06:51:34.514Z,96.00
2018-04-24T06:53:37.920Z,95.60
2018-04-24T06:55:40.515Z,95.60
2018-04-24T06:57:43.143Z,95.30
2018-04-24T06:59:45.732Z,95.70
2018-04-24T07:01:48.344Z,96.10
2018-04-24T07:03:50.938Z,96.40
2018-04-24T07:05:53.527Z,96.20
2018-04-24T07:07:56.135Z,96.10
2018-04-24T07:09:58.736Z,95.80
2018-04-24T07:12:01.353Z,95.40
2018-04-24T07:14:03.935Z,95.70
2018-04-24T07:16:06.524Z,95.90
2018-04-24T07:18:09.122Z,95.30
2018-04-24T07:20:11.716Z,94.80
2018-04-24T07:22:14.432Z,94.90
2018-04-24T07:24:17.083Z,95.20
2018-04-24T07:26:19.680Z,95.10
2018-04-24T07:28:22.305Z,95.00
2018-04-24T07:30:24.902Z,94.60
2018-04-24T07:32:27.548Z,95.00
2018-04-24T07:34:30.136Z,94.30
2018-04-24T07:36:33.380Z,94.00
2018-04-24T07:38:36.759Z,92.50
2018-04-24T07:40:39.336Z,92.50
2018-04-24T07:42:42.719Z,92.30
2018-04-24T07:44:45.314Z,92.40
2018-04-24T07:46:48.776Z,92.50
2018-04-24T07:48:51.350Z,93.00
2018-04-24T07:50:53.952Z,92.70
2018-04-24T07:52:56.556Z,92.90
2018-04-24T07:54:59.152Z,93.50
2018-04-24T07:57:01.731Z,93.10
2018-04-24T07:59:04.385Z,92.50
2018-04-24T08:01:07.075Z,93.10
2018-04-24T08:03:09.705Z,92.50
2018-04-24T08:05:12.293Z,91.90
2018-04-24T08:07:15.652Z,88.60
2018-04-24T08:09:18.284Z,88.60
2018-04-24T08:11:20.875Z,88.40
2018-04-24T08:13:23.487Z,89.50
2018-04-24T08:15:26.128Z,89.20
2018-04-24T08:17:28.728Z,90.10
2018-04-24T08:19:32.161Z,90.00
2018-04-24T08:21:34.772Z,89.50
2018-04-24T08:23:37.382Z,89.60
2018-04-24T08:25:39.977Z,88.90
2018-04-24T08:27:43.513Z,87.90
2018-04-24T08:29:46.135Z,87.90
2018-04-24T08:31:48.754Z,88.40
2018-04-24T08:33:51.372Z,87.10
2018-04-24T08:35:54.038Z,86.70
2018-04-24T08:37:56.637Z,86.90
2018-04-24T08:40:00.116Z,86.20
2018-04-24T08:42:02.700Z,86.10
2018-04-24T08:44:06.065Z,83.40
2018-04-24T08:46:08.722Z,83.40
2018-04-24T08:48:11.322Z,84.90
2018-04-24T08:50:13.934Z,84.00
2018-04-24T08:52:16.536Z,82.80
2018-04-24T08:54:19.141Z,81.50
2018-04-24T08:56:22.685Z,81.40
2018-04-24T08:58:25.253Z,79.60
2018-04-24T09:00:28.644Z,78.80
2018-04-24T09:02:31.281Z,78.30
2018-04-24T09:04:35.759Z,78.70
2018-04-24T09:06:38.355Z,78.20
2018-04-24T09:08:41.010Z,77.70
2018-04-24T09:10:43.588Z,79.60
2018-04-24T09:12:46.189Z,79.60
2018-04-24T09:14:48.859Z,79.30
2018-04-24T09:16:51.452Z,77.40
2018-04-24T09:18:54.063Z,79.40
2018-04-24T09:20:57.430Z,75.50
2018-04-24T09:23:00.791Z,75.30
2018-04-24T09:25:03.408Z,75.20
2018-04-24T09:27:06.778Z,73.60
2018-04-24T09:29:09.396Z,73.60
2018-04-24T09:31:12.012Z,73.40
2018-04-24T09:33:14.600Z,73.00
2018-04-24T09:35:22.972Z,74.70
2018-04-24T09:37:25.555Z,75.30
2018-04-24T09:39:28.150Z,74.20
2018-04-24T09:41:30.778Z,73.70
2018-04-24T09:43:33.529Z,74.20
2018-04-24T09:45:36.900Z,72.40
2018-04-24T09:47:39.500Z,72.40
2018-04-24T09:49:42.874Z,73.90
2018-04-24T09:51:45.500Z,73.80
2018-04-24T09:53:48.083Z,75.60
2018-04-24T09:55:50.755Z,74.60
2018-04-24T09:57:53.338Z,71.70
2018-04-24T09:59:55.923Z,71.70
2018-04-24T10:01:58.552Z,71.20
2018-04-24T10:04:01.141Z,71.40
2018-04-24T10:06:03.735Z,71.40
2018-04-24T10:08:06.319Z,70.80
2018-04-24T10:10:08.909Z,70.90
2018-04-24T10:12:11.534Z,71.20
2018-04-24T10:14:14.131Z,72.30
2018-04-24T10:16:16.735Z,71.70
2018-04-24T10:18:19.324Z,72.20
2018-04-24T10:20:22.722Z,71.00
2018-04-24T10:22:25.317Z,70.30
2018-04-24T10:24:27.939Z,71.50
2018-04-24T10:26:30.543Z,68.80
2018-04-24T10:28:33.980Z,69.00
2018-04-24T10:30:36.589Z,69.00
2018-04-24T10:32:39.993Z,68.00
2018-04-24T10:34:42.584Z,68.00
2018-04-24T10:36:45.943Z,67.40
2018-04-24T10:38:48.637Z,67.40
2018-04-24T10:40:51.240Z,67.40
2018-04-24T10:42:53.856Z,67.90
2018-04-24T10:44:56.444Z,66.40
2018-04-24T10:46:59.772Z,64.80
2018-04-24T10:49:03.133Z,67.20
2018-04-24T10:51:05.776Z,67.20
2018-04-24T10:53:08.384Z,65.90
2018-04-24T10:55:10.963Z,65.10
2018-04-24T10:57:13.578Z,66.30
2018-04-24T10:59:16.241Z,65.70
2018-04-24T11:01:18.800Z,64.80
2018-04-24T11:03:22.161Z,66.00
2018-04-24T11:05:24.821Z,65.80
2018-04-24T11:07:27.432Z,66.60
2018-04-24T11:09:30.029Z,65.90
2018-04-24T11:11:32.631Z,67.30
2018-04-24T11:13:35.223Z,66.10
2018-04-24T11:15:37.840Z,66.70
2018-04-24T11:17:41.224Z,65.70
2018-04-24T11:19:43.812Z,65.70
2018-04-24T11:21:47.200Z,65.60
2018-04-24T11:23:50.665Z,66.20
2018-04-24T11:25:53.256Z,65.50
2018-04-24T11:27:55.897Z,66.30
2018-04-24T11:29:58.499Z,66.70
2018-04-24T11:32:01.117Z,66.60
2018-04-24T11:34:03.721Z,66.30
2018-04-24T11:36:06.429Z,65.10
2018-04-24T11:38:09.039Z,65.60
2018-04-24T11:40:11.628Z,63.80
2018-04-24T11:42:14.221Z,65.00
2018-04-24T11:44:16.814Z,62.20
2018-04-24T11:46:19.437Z,64.10
2018-04-24T11:48:22.056Z,63.80
2018-04-24T11:50:24.721Z,61.80
2018-04-24T11:52:27.335Z,60.40
2018-04-24T11:54:29.938Z,59.70
2018-04-24T11:56:32.524Z,61.10
2018-04-24T11:58:35.194Z,63.90
2018-04-24T12:00:37.783Z,61.60
2018-04-24T12:02:40.452Z,61.70
2018-04-24T12:04:43.013Z,60.50
2018-04-24T12:06:45.626Z,61.40
2018-04-24T12:08:48.254Z,59.30
2018-04-24T12:10:50.843Z,58.00
2018-04-24T12:12:53.453Z,57.80
2018-04-24T12:14:56.070Z,57.90
2018-04-24T12:16:59.429Z,59.30
2018-04-24T12:19:02.042Z,59.30
2018-04-24T12:21:04.630Z,57.70
2018-04-24T12:23:07.241Z,59.10
2018-04-24T12:25:09.853Z,58.20
2018-04-24T12:27:13.650Z,59.00
2018-04-24T12:29:17.018Z,58.10
2018-04-24T12:31:19.629Z,58.00
2018-04-24T12:33:23.124Z,56.70
2018-04-24T12:35:26.485Z,56.80
2018-04-24T12:37:29.183Z,56.80
2018-04-24T12:39:32.554Z,57.10
2018-04-24T12:41:35.153Z,57.10
2018-04-24T12:43:38.531Z,55.60
2018-04-24T12:45:41.120Z,55.60
2018-04-24T12:47:44.594Z,56.00
2018-04-24T12:49:47.246Z,56.00
2018-04-24T12:51:49.859Z,56.30
2018-04-24T12:53:52.461Z,57.00
2018-04-24T12:55:55.055Z,54.80
2018-04-24T12:57:58.425Z,55.20
2018-04-24T13:00:01.032Z,55.20
2018-04-24T13:02:04.391Z,56.00
2018-04-24T13:04:06.992Z,55.90
2018-04-24T13:06:09.584Z,53.30
2018-04-24T13:08:12.192Z,54.00
2018-04-24T13:10:15.574Z,53.60
2018-04-24T13:12:18.191Z,53.60
2018-04-24T13:14:20.798Z,54.50
2018-04-24T13:16:23.380Z,54.80
2018-04-24T13:18:26.093Z,55.60
2018-04-24T13:20:28.640Z,53.60
2018-04-24T13:22:31.220Z,53.30
2018-04-24T13:24:34.658Z,52.70
2018-04-24T13:26:37.267Z,51.90
2018-04-24T13:28:39.876Z,53.30
2018-04-24T13:30:43.230Z,53.30
2018-04-24T13:32:45.829Z,53.30
2018-04-24T13:34:48.453Z,52.10
2018-04-24T13:36:51.056Z,53.40
2018-04-24T13:41:02.772Z,52.10
2018-04-24T13:43:05.494Z,52.00
2018-04-24T13:45:08.101Z,52.00
2018-04-24T13:47:10.953Z,51.30
2018-04-24T13:49:13.566Z,51.20
2018-04-24T13:51:16.173Z,51.60
2018-04-24T13:53:19.529Z,51.50
2018-04-24T13:55:22.362Z,51.50
2018-04-24T13:57:24.957Z,51.70
2018-04-24T13:59:27.641Z,51.90
2018-04-24T14:01:30.219Z,53.50
2018-04-24T14:03:32.827Z,51.00
2018-04-24T14:05:35.408Z,50.70
2018-04-24T14:07:38.006Z,51.30
2018-04-24T14:09:40.612Z,51.80
2018-04-24T14:11:43.203Z,52.50
2018-04-24T14:13:45.859Z,51.50
2018-04-24T14:15:48.466Z,51.90
2018-04-24T14:17:51.095Z,50.30
2018-04-24T14:19:53.707Z,49.60
2018-04-24T14:21:56.360Z,49.80
2018-04-24T14:23:58.967Z,50.80
2018-04-24T14:26:01.946Z,49.80
2018-04-24T14:28:04.531Z,50.40
2018-04-24T14:30:07.141Z,49.90
2018-04-24T14:32:09.733Z,50.40
2018-04-24T14:34:12.348Z,49.80
2018-04-24T14:36:14.941Z,51.30
2018-04-24T14:38:18.317Z,51.10
2018-04-24T14:40:20.929Z,51.10
2018-04-24T14:42:23.520Z,49.90
2018-04-24T14:44:26.585Z,50.50
2018-04-24T14:46:29.948Z,49.70
2018-04-24T14:48:33.320Z,50.30
2018-04-24T14:50:35.984Z,50.30
2018-04-24T14:52:38.576Z,51.10
2018-04-24T14:54:41.190Z,50.30
2018-04-24T14:56:43.845Z,50.20
2018-04-24T14:58:47.361Z,49.70
2018-04-24T15:00:49.977Z,49.70
2018-04-24T15:02:52.577Z,49.60
2018-04-24T15:04:55.193Z,49.10
2018-04-24T15:06:57.795Z,49.50
2018-04-24T15:09:01.154Z,49.80
2018-04-24T15:11:04.046Z,49.80
2018-04-24T15:13:06.961Z,49.60
2018-04-24T15:17:14.371Z,49.60
2018-04-24T15:19:16.984Z,49.80
2018-04-24T15:21:19.612Z,49.80
2018-04-24T15:23:22.187Z,49.90
2018-04-24T15:25:24.797Z,49.50
2018-04-24T15:27:28.164Z,51.20
2018-04-24T15:29:30.756Z,51.20
2018-04-24T15:31:34.169Z,51.20
2018-04-24T15:33:36.812Z,51.20
2018-04-24T15:35:39.444Z,50.70
2018-04-24T15:37:42.053Z,51.40
2018-04-24T15:39:44.651Z,50.80
2018-04-24T15:41:48.079Z,50.70
2018-04-24T15:43:50.746Z,50.70
2018-04-24T15:45:53.353Z,51.00
2018-04-24T15:47:55.950Z,50.50
2018-04-24T15:49:58.579Z,50.90
2018-04-24T15:52:01.192Z,51.00
2018-04-24T15:54:03.792Z,51.40
2018-04-24T15:56:07.467Z,51.00
2018-04-24T15:58:10.062Z,51.60
2018-04-24T16:00:13.437Z,50.80
2018-04-24T16:02:16.032Z,50.70
2018-04-24T16:04:18.680Z,51.50
2018-04-24T16:06:21.312Z,51.30
2018-04-24T16:08:23.899Z,51.40
2018-04-24T16:10:26.537Z,51.60
2018-04-24T16:12:29.884Z,51.90
2018-04-24T16:14:32.479Z,51.90
2018-04-24T16:16:35.101Z,52.70
2018-04-24T16:18:37.696Z,52.30
2018-04-24T16:20:40.607Z,52.20
2018-04-24T16:22:43.196Z,52.20
2018-04-24T16:24:46.574Z,52.80
2018-04-24T16:26:49.184Z,52.70
2018-04-24T16:28:51.777Z,53.20
2018-04-24T16:30:54.404Z,53.20
2018-04-24T16:32:56.993Z,53.60
2018-04-24T16:35:00.366Z,53.60
2018-04-24T16:37:02.972Z,53.60
2018-04-24T16:39:06.487Z,53.60
2018-04-24T16:41:09.139Z,53.20
2018-04-24T16:43:12.499Z,53.40
2018-04-24T16:45:15.089Z,53.40
2018-04-24T16:47:17.827Z,53.90
2018-04-24T16:49:20.643Z,54.20
2018-04-24T16:51:24.053Z,54.30
2018-04-24T16:53:26.679Z,53.90
2018-04-24T16:55:29.296Z,53.60
2018-04-24T16:57:32.666Z,55.30
2018-04-24T16:59:35.263Z,55.20
2018-04-24T17:01:38.659Z,56.30
2018-04-24T17:03:42.033Z,56.70
2018-04-24T17:05:44.628Z,56.70
2018-04-24T17:07:48.029Z,57.10
2018-04-24T17:09:50.624Z,57.00
2018-04-24T17:11:53.316Z,57.30
2018-04-24T17:13:55.949Z,58.00
2018-04-24T17:15:58.559Z,58.60
2018-04-24T17:18:01.171Z,59.00
2018-04-24T17:20:03.838Z,59.30
2018-04-24T17:22:07.169Z,59.70
2018-04-24T17:24:10.471Z,59.70
2018-04-24T17:26:13.100Z,60.10
2018-04-24T17:28:15.705Z,60.50
2018-04-24T17:30:18.284Z,60.80
2018-04-24T17:32:20.915Z,61.50
2018-04-24T17:34:23.506Z,61.60
2018-04-24T17:36:26.102Z,62.10
2018-04-24T17:38:28.701Z,61.50
2018-04-24T17:40:31.321Z,62.20
2018-04-24T17:42:35.562Z,62.80
2018-04-24T17:44:38.209Z,62.80
2018-04-24T17:46:40.865Z,63.10
2018-04-24T17:48:43.478Z,63.60
2018-04-24T17:50:46.122Z,63.80
2018-04-24T17:52:48.754Z,64.30
2018-04-24T17:54:51.347Z,65.60
2018-04-24T17:56:54.016Z,65.30
2018-04-24T17:58:56.636Z,65.40
2018-04-24T18:00:59.261Z,65.60
2018-04-24T18:03:01.900Z,65.70
2018-04-24T18:05:05.285Z,66.90
2018-04-24T18:07:08.688Z,66.90
2018-04-24T18:09:12.134Z,68.30
2018-04-24T18:11:15.540Z,70.00
2018-04-24T18:13:18.932Z,71.10
2018-04-24T18:15:21.551Z,71.10
2018-04-24T18:17:24.179Z,72.30
2018-04-24T18:19:27.578Z,72.70
2018-04-24T18:21:30.217Z,72.60
2018-04-24T18:23:32.844Z,72.90
2018-04-24T18:25:36.144Z,73.30
2018-04-24T18:27:39.528Z,73.80
2018-04-24T18:29:42.127Z,73.80
2018-04-24T18:31:44.752Z,74.60
2018-04-24T18:33:47.405Z,75.20
2018-04-24T18:35:50.021Z,75.20
2018-04-24T18:37:52.692Z,75.70
2018-04-24T18:39:55.287Z,75.90
2018-04-24T18:41:57.896Z,77.00
2018-04-24T18:44:00.514Z,76.90
2018-04-24T18:46:03.153Z,77.00
2018-04-24T18:48:05.852Z,77.70
2018-04-24T18:50:08.447Z,78.30
2018-04-24T18:52:11.077Z,78.90
2018-04-24T18:54:14.436Z,78.80
2018-04-24T18:56:17.049Z,79.30
2018-04-24T18:58:20.503Z,79.90
2018-04-24T19:00:23.197Z,80.00
2018-04-24T19:02:25.798Z,80.60
2018-04-24T19:04:28.442Z,80.90
2018-04-24T19:06:31.054Z,81.10
2018-04-24T19:08:33.678Z,81.50
2018-04-24T19:10:37.042Z,82.10
2018-04-24T19:12:39.793Z,82.10
2018-04-24T19:14:42.397Z,83.10
2018-04-24T19:16:44.986Z,82.60
2018-04-24T19:18:54.052Z,83.10
2018-04-24T19:20:56.681Z,83.10
2018-04-24T19:22:59.310Z,83.10
2018-04-24T19:25:07.542Z,84.10
2018-04-24T19:27:10.176Z,83.90
2018-04-24T19:29:12.800Z,83.60
2018-04-24T19:31:21.270Z,84.50
2018-04-24T19:33:23.855Z,83.80
2018-04-24T19:35:26.460Z,83.80
2018-04-24T19:37:29.129Z,83.90
2018-04-24T19:39:37.388Z,84.40
2018-04-24T19:41:45.952Z,84.20
2018-04-24T19:43:48.586Z,84.60
2018-04-24T19:45:51.411Z,84.60
2018-04-24T19:47:54.080Z,85.00
2018-04-24T19:50:02.204Z,85.50
2018-04-24T19:52:05.600Z,86.00
2018-04-24T19:54:08.992Z,87.00
2018-04-24T19:56:11.632Z,86.20
2018-04-24T19:58:14.267Z,86.60
2018-04-24T20:00:16.870Z,86.70
2018-04-24T20:02:19.474Z,85.20
2018-04-24T20:04:22.194Z,85.00
2018-04-24T20:06:25.440Z,85.70
2018-04-24T20:08:28.072Z,86.30
2018-04-24T20:10:31.009Z,86.30
2018-04-24T20:12:33.613Z,86.90
2018-04-24T20:14:36.274Z,87.30
2018-04-24T20:16:39.655Z,87.80
2018-04-24T20:18:43.028Z,88.10
2018-04-24T20:20:45.853Z,88.00
2018-04-24T20:22:48.458Z,88.20
2018-04-24T20:24:51.096Z,88.10
2018-04-24T20:26:53.691Z,88.10
2018-04-24T20:28:56.312Z,88.50
2018-04-24T20:30:58.917Z,89.20
2018-04-24T20:33:02.311Z,89.30
2018-04-24T20:35:04.933Z,89.40
2018-04-24T20:37:07.512Z,89.50
2018-04-24T20:39:10.155Z,89.70
2018-04-24T20:41:12.792Z,89.70
2018-04-24T20:43:15.391Z,89.60
2018-04-24T20:45:18.052Z,89.40
2018-04-24T20:47:21.499Z,89.20
2018-04-24T20:49:24.065Z,89.20
2018-04-24T20:51:26.761Z,89.10
2018-04-24T20:53:29.502Z,88.60
2018-04-24T20:55:33.351Z,88.50
2018-04-24T20:57:35.950Z,88.30
2018-04-24T20:59:39.350Z,89.10
2018-04-24T21:01:42.719Z,89.60
2018-04-24T21:03:45.315Z,89.60
2018-04-24T21:05:48.822Z,89.80
2018-04-24T21:07:51.752Z,89.80
2018-04-24T21:09:54.555Z,90.00
2018-04-24T21:11:57.921Z,90.40
2018-04-24T21:14:00.536Z,90.40
2018-04-24T21:16:04.025Z,90.50
2018-04-24T21:18:07.409Z,90.40
2018-04-24T21:20:10.041Z,90.40
2018-04-24T21:22:12.627Z,90.50
2018-04-24T21:24:15.215Z,90.50
2018-04-24T21:26:17.845Z,90.50
2018-04-24T21:28:20.449Z,90.40
2018-04-24T21:30:25.112Z,90.50
2018-04-24T21:32:28.456Z,90.80
2018-04-24T21:34:31.125Z,90.80
2018-04-24T21:36:33.861Z,90.80
2018-04-24T21:38:37.229Z,91.00
2018-04-24T21:40:39.912Z,90.90
2018-04-24T21:42:42.512Z,90.90
2018-04-24T21:44:46.171Z,90.90
2018-04-24T21:46:49.786Z,90.90
2018-04-24T21:48:52.384Z,91.00
2018-04-24T21:50:55.755Z,91.00
2018-04-24T21:52:58.339Z,91.00
2018-04-24T21:55:01.714Z,91.30
2018-04-24T21:57:04.344Z,91.20
2018-04-24T21:59:06.950Z,91.20
2018-04-24T22:01:09.663Z,91.20
2018-04-24T22:03:13.029Z,91.10
2018-04-24T22:05:15.628Z,91.10
2018-04-24T22:07:18.219Z,91.00
2018-04-24T22:09:20.832Z,91.20
2018-04-24T22:11:23.453Z,91.10
2018-04-24T22:13:26.813Z,91.20
2018-04-24T22:15:29.444Z,91.20
2018-04-24T22:17:32.036Z,91.30
2018-04-24T22:19:34.652Z,91.20
2018-04-24T22:21:37.257Z,91.10
2018-04-24T22:23:39.852Z,91.50
2018-04-24T22:25:42.580Z,91.30
2018-04-24T22:27:45.957Z,91.30
2018-04-24T22:29:50.056Z,91.30
2018-04-24T22:31:52.736Z,91.30
2018-04-24T22:33:55.331Z,91.20
2018-04-24T22:35:57.944Z,91.50
2018-04-24T22:38:01.307Z,91.30
2018-04-24T22:40:04.669Z,91.60
2018-04-24T22:42:07.270Z,91.40
2018-04-24T22:44:10.628Z,91.50
2018-04-24T22:46:13.264Z,91.50
2018-04-24T22:48:15.892Z,91.10
2018-04-24T22:50:18.482Z,91.20
2018-04-24T22:52:21.932Z,91.80
2018-04-24T22:54:24.567Z,91.70
2018-04-24T22:56:27.932Z,91.70
2018-04-24T22:58:30.517Z,91.70
2018-04-24T23:00:33.877Z,91.80
2018-04-24T23:02:36.492Z,91.80
2018-04-24T23:04:39.932Z,91.70
2018-04-24T23:06:42.546Z,91.70
2018-04-24T23:08:45.133Z,91.70
2018-04-24T23:11:00.390Z,91.70
2018-04-24T23:13:14.889Z,91.70
2018-04-24T23:15:29.440Z,91.80
2018-04-24T23:17:43.893Z,91.90
2018-04-24T23:19:59.005Z,92.00
2018-04-24T23:22:01.084Z,92.00
2018-04-24T23:24:03.676Z,91.70
2018-04-24T23:26:07.065Z,91.80
2018-04-24T23:28:10.439Z,91.90
2018-04-24T23:30:13.051Z,91.80
2018-04-24T23:32:15.656Z,92.20
2018-04-24T23:34:18.256Z,92.40
2018-04-24T23:36:21.700Z,92.20
2018-04-24T23:38:24.303Z,92.10
2018-04-24T23:40:26.886Z,92.00
2018-04-24T23:42:29.479Z,92.20
2018-04-24T23:44:32.061Z,92.10
2018-04-24T23:46:35.408Z,92.20
2018-04-24T23:48:38.018Z,92.20
2018-04-24T23:50:40.596Z,92.30
2018-04-24T23:52:43.981Z,92.80
2018-04-24T23:54:46.571Z,92.70
2018-04-24T23:56:49.930Z,93.00
2018-04-24T23:58:52.668Z,92.90
